createdAt,value
2018-01-31T01:53:42.264Z,2.50
2018-01-31T01:56:09.542Z,1.87
2018-01-31T01:58:36.869Z,2.30
2018-01-31T02:01:04.106Z,2.20
2018-01-31T02:03:31.382Z,2.13
2018-01-31T02:05:58.661Z,2.17
2018-01-31T02:08:25.949Z,2.13
2018-01-31T02:10:53.234Z,2.30
2018-01-31T02:13:20.513Z,2.50
2018-01-31T02:15:47.801Z,2.23
2018-01-31T02:18:15.086Z,1.93
2018-01-31T02:20:42.361Z,1.80
2018-01-31T02:23:09.641Z,2.43
2018-01-31T02:25:36.917Z,2.13
2018-01-31T02:28:04.199Z,2.20
2018-01-31T02:30:31.478Z,2.10
2018-01-31T02:32:58.754Z,2.27
2018-01-31T02:35:28.962Z,2.43
2018-01-31T02:37:56.253Z,2.30
2018-01-31T02:40:23.535Z,2.00
2018-01-31T02:42:50.807Z,2.00
2018-01-31T02:45:18.085Z,2.20
2018-01-31T02:47:45.370Z,2.10
2018-01-31T02:50:12.655Z,1.93
2018-01-31T02:52:39.928Z,2.07
2018-01-31T02:55:07.205Z,2.13
2018-01-31T02:57:34.554Z,2.13
2018-01-31T03:00:01.843Z,2.07
2018-01-31T03:02:29.127Z,2.17
2018-01-31T03:04:56.419Z,2.10
2018-01-31T03:07:23.705Z,2.40
2018-01-31T03:09:50.988Z,2.00
2018-01-31T03:12:18.270Z,1.83
2018-01-31T03:14:45.578Z,1.70
2018-01-31T03:17:12.858Z,1.97
2018-01-31T03:19:40.138Z,2.03
2018-01-31T03:22:07.418Z,1.70
2018-01-31T03:24:34.696Z,2.23
2018-01-31T03:27:01.978Z,1.70
2018-01-31T03:29:29.270Z,1.87
2018-01-31T03:31:56.551Z,2.07
2018-01-31T03:34:23.826Z,1.80
2018-01-31T03:36:51.101Z,2.30
2018-01-31T03:39:18.386Z,1.70
2018-01-31T03:41:45.678Z,1.80
2018-01-31T03:44:12.958Z,2.13
2018-01-31T03:46:40.235Z,2.03
2018-01-31T03:49:07.519Z,1.90
2018-01-31T03:51:34.801Z,1.50
2018-01-31T03:54:02.086Z,2.20
2018-01-31T03:56:29.388Z,1.97
2018-01-31T03:58:56.666Z,1.90
2018-01-31T04:01:24.043Z,2.20
2018-01-31T04:03:51.327Z,1.77
2018-01-31T04:06:18.620Z,1.63
2018-01-31T04:08:45.906Z,1.87
2018-01-31T04:11:13.215Z,2.00
2018-01-31T04:13:40.473Z,1.70
2018-01-31T04:16:07.742Z,1.70
2018-01-31T04:18:35.026Z,1.83
2018-01-31T04:21:02.323Z,1.80
2018-01-31T04:23:29.602Z,1.67
2018-01-31T04:25:56.882Z,1.90
2018-01-31T04:28:24.158Z,1.70
2018-01-31T04:30:51.446Z,1.77
2018-01-31T04:33:18.722Z,2.20
2018-01-31T04:35:46.699Z,1.77
2018-01-31T04:38:13.970Z,1.60
2018-01-31T04:40:41.249Z,1.70
2018-01-31T04:43:08.532Z,1.83
2018-01-31T04:45:35.812Z,1.73
2018-01-31T04:48:03.106Z,2.27
2018-01-31T04:50:30.694Z,1.63
2018-01-31T04:52:57.973Z,1.83
2018-01-31T04:55:25.256Z,1.90
2018-01-31T04:57:52.529Z,1.60
2018-01-31T05:00:19.818Z,1.37
2018-01-31T05:02:47.102Z,1.70
2018-01-31T05:05:14.419Z,1.40
2018-01-31T05:07:41.697Z,1.57
2018-01-31T05:10:10.435Z,1.90
2018-01-31T05:12:37.709Z,1.60
2018-01-31T05:15:04.985Z,1.40
2018-01-31T05:17:32.270Z,1.70
2018-01-31T05:19:59.554Z,1.53
2018-01-31T05:22:26.838Z,1.80
2018-01-31T05:24:54.121Z,1.70
2018-01-31T05:27:21.394Z,1.63
2018-01-31T05:29:48.695Z,1.90
2018-01-31T05:32:15.973Z,2.15
2018-01-31T05:34:43.254Z,2.00
2018-01-31T05:37:10.529Z,3.70
2018-01-31T05:39:37.818Z,4.30
2018-01-31T05:42:05.095Z,3.67
2018-01-31T05:44:32.389Z,3.50
2018-01-31T05:46:59.661Z,3.33
2018-01-31T05:49:26.934Z,3.40
2018-01-31T05:51:54.210Z,3.87
2018-01-31T05:54:21.491Z,3.10
2018-01-31T05:56:49.363Z,3.23
2018-01-31T05:59:16.634Z,3.17
2018-01-31T06:01:43.923Z,3.17
2018-01-31T06:04:11.197Z,3.60
2018-01-31T06:06:38.478Z,3.20
2018-01-31T06:09:05.827Z,3.40
2018-01-31T06:11:33.106Z,3.07
2018-01-31T06:14:00.387Z,3.60
2018-01-31T06:16:27.665Z,3.50
2018-01-31T06:18:54.941Z,3.27
2018-01-31T06:21:22.214Z,3.23
2018-01-31T06:23:49.486Z,2.77
2018-01-31T06:26:16.763Z,2.63
2018-01-31T06:28:44.038Z,2.90
2018-01-31T06:31:11.309Z,3.10
2018-01-31T06:33:38.586Z,3.20
2018-01-31T06:36:05.867Z,2.33
2018-01-31T06:38:33.138Z,2.73
2018-01-31T06:41:00.414Z,2.60
2018-01-31T06:43:27.693Z,2.67
2018-01-31T06:45:54.973Z,2.77
2018-01-31T06:48:22.262Z,2.53
2018-01-31T06:50:49.547Z,2.93
2018-01-31T06:53:16.835Z,3.13
2018-01-31T06:55:44.138Z,2.63
2018-01-31T06:58:11.434Z,2.67
2018-01-31T07:00:38.718Z,2.73
2018-01-31T07:03:05.998Z,2.57
2018-01-31T07:05:33.269Z,2.60
2018-01-31T07:08:00.546Z,2.70
2018-01-31T07:10:27.822Z,2.60
2018-01-31T07:12:55.102Z,2.53
2018-01-31T07:15:22.381Z,2.33
2018-01-31T07:17:49.661Z,2.63
2018-01-31T07:20:16.939Z,2.50
2018-01-31T07:22:44.248Z,2.33
2018-01-31T07:25:11.530Z,2.80
2018-01-31T07:27:38.863Z,2.47
2018-01-31T07:30:06.102Z,2.00
2018-01-31T07:32:33.375Z,2.20
2018-01-31T07:35:00.675Z,2.17
2018-01-31T07:37:27.953Z,2.67
2018-01-31T07:39:55.230Z,2.60
2018-01-31T07:42:22.506Z,2.67
2018-01-31T07:44:49.785Z,2.43
2018-01-31T07:47:17.068Z,2.10
2018-01-31T07:49:44.359Z,2.20
2018-01-31T07:52:12.345Z,2.10
2018-01-31T07:54:39.638Z,2.30
2018-01-31T07:57:06.910Z,2.50
2018-01-31T07:59:34.186Z,2.53
2018-01-31T08:02:01.462Z,1.87
2018-01-31T08:04:28.745Z,1.90
2018-01-31T08:06:56.022Z,2.03
2018-01-31T08:09:23.295Z,2.37
2018-01-31T08:11:50.582Z,1.93
2018-01-31T08:14:18.055Z,2.07
2018-01-31T08:16:45.367Z,2.13
2018-01-31T08:19:12.649Z,2.20
2018-01-31T08:21:39.927Z,2.00
2018-01-31T08:24:07.199Z,2.20
2018-01-31T08:26:34.478Z,1.90
2018-01-31T08:29:01.763Z,2.30
2018-01-31T08:31:29.035Z,1.67
2018-01-31T08:33:56.315Z,2.27
2018-01-31T08:36:23.594Z,1.90
2018-01-31T08:38:50.871Z,1.80
2018-01-31T08:41:18.153Z,2.00
2018-01-31T08:43:46.234Z,2.20
2018-01-31T08:46:13.521Z,1.70
2018-01-31T08:48:40.794Z,2.03
2018-01-31T08:51:08.068Z,1.87
2018-01-31T08:53:35.347Z,2.03
2018-01-31T08:56:02.618Z,2.03
2018-01-31T08:58:29.908Z,2.03
2018-01-31T09:00:57.191Z,1.77
2018-01-31T09:03:24.487Z,2.00
2018-01-31T09:05:51.758Z,2.00
2018-01-31T09:08:19.042Z,1.70
2018-01-31T09:10:46.321Z,1.90
2018-01-31T09:13:13.598Z,1.63
2018-01-31T09:15:40.878Z,1.60
2018-01-31T09:18:08.173Z,2.03
2018-01-31T09:20:35.442Z,1.97
2018-01-31T09:23:02.721Z,1.70
2018-01-31T09:25:29.989Z,1.50
2018-01-31T09:27:57.270Z,2.30
2018-01-31T09:30:24.555Z,1.80
2018-01-31T09:32:51.836Z,1.90
2018-01-31T09:35:19.118Z,1.37
2018-01-31T09:37:46.406Z,1.27
2018-01-31T09:40:13.700Z,1.73
2018-01-31T09:42:40.976Z,1.53
2018-01-31T09:45:08.252Z,1.40
2018-01-31T09:47:35.533Z,1.40
2018-01-31T09:50:02.810Z,1.70
2018-01-31T09:52:30.097Z,1.47
2018-01-31T09:54:57.378Z,1.30
2018-01-31T09:57:24.654Z,1.57
2018-01-31T09:59:51.943Z,1.27
2018-01-31T10:02:19.217Z,1.53
2018-01-31T10:04:46.526Z,1.67
2018-01-31T10:07:13.812Z,1.30
2018-01-31T10:09:41.089Z,1.17
2018-01-31T10:12:08.357Z,1.43
2018-01-31T10:14:35.647Z,1.67
2018-01-31T10:17:02.925Z,1.40
2018-01-31T10:19:30.205Z,1.10
2018-01-31T10:21:57.473Z,1.90
2018-01-31T10:24:24.758Z,1.40
2018-01-31T10:26:52.036Z,1.37
2018-01-31T10:29:19.323Z,1.13
2018-01-31T10:31:46.597Z,1.00
2018-01-31T10:34:13.877Z,1.10
2018-01-31T10:36:41.149Z,1.07
2018-01-31T10:39:08.429Z,1.00
2018-01-31T10:41:35.709Z,1.47
2018-01-31T10:44:02.983Z,1.23
2018-01-31T10:46:30.257Z,1.23
2018-01-31T10:48:57.530Z,1.30
2018-01-31T10:51:24.813Z,1.23
2018-01-31T10:58:46.710Z,1.33
2018-01-31T11:01:13.990Z,1.50
2018-01-31T11:03:41.261Z,1.27
2018-01-31T11:06:08.544Z,1.10
2018-01-31T11:08:35.817Z,1.20
2018-01-31T11:11:03.158Z,1.17
2018-01-31T11:13:30.375Z,0.83
2018-01-31T11:15:57.647Z,1.13
2018-01-31T11:18:24.926Z,1.50
2018-01-31T11:20:52.197Z,1.20
2018-01-31T11:23:19.470Z,1.37
2018-01-31T11:25:46.757Z,1.10
2018-01-31T11:28:14.046Z,0.90
2018-01-31T11:30:41.331Z,1.43
2018-01-31T11:33:08.622Z,1.23
2018-01-31T11:35:35.902Z,1.13
2018-01-31T11:38:03.186Z,1.47
2018-01-31T11:40:30.462Z,0.80
2018-01-31T11:42:57.741Z,1.23
2018-01-31T11:45:25.014Z,1.40
2018-01-31T11:47:52.286Z,1.00
2018-01-31T11:50:19.570Z,1.00
2018-01-31T11:52:46.852Z,1.00
2018-01-31T11:55:14.137Z,1.07
2018-01-31T11:57:41.418Z,1.23
2018-01-31T12:00:08.690Z,1.20
2018-01-31T12:02:35.974Z,1.10
2018-01-31T12:05:03.249Z,1.10
2018-01-31T12:07:30.518Z,0.97
2018-01-31T12:09:57.794Z,0.90
2018-01-31T12:15:24.390Z,0.93
2018-01-31T12:17:51.666Z,0.80
2018-01-31T12:20:30.925Z,1.20
2018-01-31T12:23:10.134Z,1.03
2018-01-31T12:25:49.302Z,1.07
2018-01-31T12:28:28.539Z,1.07
2018-01-31T12:31:07.741Z,1.17
2018-01-31T12:33:46.942Z,1.00
2018-01-31T12:36:26.093Z,1.00
2018-01-31T12:38:58.815Z,1.10
2018-01-31T12:41:25.606Z,1.10
2018-01-31T12:43:52.418Z,1.10
2018-01-31T12:46:31.559Z,0.80
2018-01-31T12:49:01.247Z,0.90
2018-01-31T12:51:42.486Z,1.00
2018-01-31T12:54:21.529Z,1.10
2018-01-31T12:57:00.574Z,0.93
2018-01-31T12:59:39.684Z,0.90
2018-01-31T13:02:18.879Z,0.90
2018-01-31T13:04:58.198Z,1.00
2018-01-31T13:10:40.544Z,0.90
2018-01-31T13:13:19.715Z,1.23
2018-01-31T13:15:58.827Z,1.00
2018-01-31T13:18:38.058Z,0.90
2018-01-31T13:21:17.162Z,1.07
2018-01-31T13:23:56.386Z,1.17
2018-01-31T13:26:30.518Z,0.70
2018-01-31T13:29:09.790Z,0.70
2018-01-31T13:31:59.705Z,0.90
2018-01-31T13:34:38.914Z,0.80
2018-01-31T13:37:23.862Z,0.80
2018-01-31T13:40:03.041Z,0.87
2018-01-31T13:42:45.824Z,0.90
2018-01-31T13:45:24.957Z,1.00
2018-01-31T13:48:04.178Z,1.00
2018-01-31T13:50:43.358Z,1.07
2018-01-31T13:53:22.500Z,1.30
2018-01-31T13:56:01.758Z,1.20
2018-01-31T13:58:40.903Z,1.50
2018-01-31T14:01:20.186Z,1.30
2018-01-31T14:03:55.170Z,1.30
2018-01-31T14:06:34.414Z,1.50
2018-01-31T14:09:13.666Z,1.20
2018-01-31T14:11:52.885Z,0.90
2018-01-31T14:14:32.077Z,1.50
2018-01-31T14:17:11.286Z,1.47
2018-01-31T14:19:50.499Z,1.10
2018-01-31T14:22:29.690Z,1.67
2018-01-31T14:25:09.683Z,1.50
2018-01-31T14:27:48.847Z,2.13
2018-01-31T14:30:27.896Z,1.67
2018-01-31T14:33:07.138Z,1.67
2018-01-31T14:35:46.407Z,2.00
2018-01-31T14:38:13.237Z,1.60
2018-01-31T14:40:40.282Z,1.97
2018-01-31T14:43:07.084Z,1.63
2018-01-31T14:45:33.878Z,1.70
2018-01-31T14:48:00.666Z,1.47
2018-01-31T14:50:27.453Z,1.87
2018-01-31T14:52:54.239Z,1.43
2018-01-31T14:55:21.025Z,1.53
2018-01-31T14:57:47.826Z,2.43
2018-01-31T15:00:14.633Z,1.63
2018-01-31T15:02:41.428Z,1.57
2018-01-31T15:05:08.222Z,1.57
2018-01-31T15:07:35.007Z,1.43
2018-01-31T15:10:01.825Z,1.60
2018-01-31T15:12:28.616Z,1.00
2018-01-31T15:14:55.407Z,1.90
2018-01-31T15:17:22.190Z,1.40
2018-01-31T15:19:48.979Z,1.27
2018-01-31T15:22:15.770Z,1.57
2018-01-31T15:24:42.558Z,1.80
2018-01-31T15:27:09.351Z,1.20
2018-01-31T15:29:36.129Z,1.20
2018-01-31T15:32:02.929Z,1.43
2018-01-31T15:34:29.723Z,1.40
2018-01-31T15:36:56.517Z,1.00
2018-01-31T15:39:23.310Z,1.50
2018-01-31T15:41:50.091Z,1.57
2018-01-31T15:44:16.883Z,1.53
2018-01-31T15:46:43.725Z,1.63
2018-01-31T15:49:10.519Z,1.60
2018-01-31T15:51:37.310Z,1.47
2018-01-31T15:54:04.089Z,1.60
2018-01-31T15:56:30.869Z,1.53
2018-01-31T15:58:57.679Z,1.17
2018-01-31T16:01:24.466Z,1.50
2018-01-31T16:03:51.337Z,1.23
2018-01-31T16:06:18.170Z,1.23
2018-01-31T16:08:44.977Z,1.60
2018-01-31T16:11:11.780Z,1.43
2018-01-31T16:13:38.579Z,1.13
2018-01-31T16:16:05.381Z,1.50
2018-01-31T16:18:44.586Z,1.40
2018-01-31T16:21:18.664Z,1.27
2018-01-31T16:23:45.949Z,1.30
2018-01-31T16:26:13.237Z,1.30
2018-01-31T16:31:54.574Z,1.73
2018-01-31T16:34:21.854Z,1.63
2018-01-31T16:36:49.133Z,1.60
2018-01-31T16:39:16.410Z,1.77
2018-01-31T16:41:43.694Z,1.77
2018-01-31T16:44:10.970Z,1.20
2018-01-31T16:46:38.243Z,1.50
2018-01-31T16:49:05.530Z,1.80
2018-01-31T16:51:32.814Z,1.80
2018-01-31T16:54:00.102Z,1.50
2018-01-31T16:56:27.452Z,1.10
2018-01-31T16:58:55.046Z,1.30
2018-01-31T17:01:22.359Z,1.40
2018-01-31T17:03:49.652Z,1.50
2018-01-31T17:06:16.934Z,1.40
2018-01-31T17:08:44.218Z,1.40
2018-01-31T17:11:11.513Z,1.60
2018-01-31T17:13:38.791Z,1.60
2018-01-31T17:16:06.086Z,1.30
2018-01-31T17:18:34.376Z,2.07
2018-01-31T17:21:01.914Z,1.60
2018-01-31T17:23:29.226Z,1.33
2018-01-31T17:25:59.441Z,1.67
2018-01-31T17:28:28.750Z,1.70
2018-01-31T17:30:59.595Z,1.90
2018-01-31T17:33:26.899Z,2.03
2018-01-31T17:35:54.195Z,1.80
2018-01-31T17:38:21.605Z,1.50
2018-01-31T17:40:48.935Z,1.70
2018-01-31T17:43:16.218Z,1.40
2018-01-31T17:45:43.497Z,1.97
2018-01-31T17:48:18.060Z,1.43
2018-01-31T17:50:45.410Z,1.30
2018-01-31T17:53:12.707Z,1.40
2018-01-31T17:55:39.986Z,1.40
2018-01-31T17:58:08.316Z,1.70
2018-01-31T18:00:36.518Z,1.50
2018-01-31T18:03:03.827Z,1.50
2018-01-31T18:05:31.294Z,1.40
2018-01-31T18:07:58.593Z,1.10
2018-01-31T18:10:25.881Z,1.30
2018-01-31T18:12:54.251Z,1.50
2018-01-31T18:15:21.681Z,1.20
2018-01-31T18:17:48.967Z,1.47
2018-01-31T18:20:16.267Z,1.30
2018-01-31T18:22:43.550Z,1.60
2018-01-31T18:25:10.821Z,1.40
2018-01-31T18:27:38.131Z,1.20
2018-01-31T18:30:05.438Z,1.10
2018-01-31T18:32:32.721Z,1.40
2018-01-31T18:35:00.958Z,1.27
2018-01-31T18:37:28.291Z,1.10
2018-01-31T18:39:58.390Z,1.50
2018-01-31T18:42:25.920Z,1.13
2018-01-31T18:44:53.218Z,1.50
2018-01-31T18:47:20.589Z,1.50
2018-01-31T18:49:47.874Z,1.63
2018-01-31T18:52:15.161Z,1.40
2018-01-31T18:54:44.436Z,1.30
2018-01-31T18:57:11.722Z,1.10
2018-01-31T18:59:40.017Z,1.00
2018-01-31T19:02:07.298Z,1.33
2018-01-31T19:04:34.579Z,1.30
2018-01-31T19:07:01.861Z,1.30
2018-01-31T19:09:29.416Z,1.43
2018-01-31T19:11:56.694Z,1.30
2018-01-31T19:14:23.974Z,1.70
2018-01-31T19:16:52.215Z,1.67
2018-01-31T19:19:19.511Z,1.33
2018-01-31T19:21:47.092Z,1.40
2018-01-31T19:24:15.408Z,1.40
2018-01-31T19:26:43.734Z,1.10
2018-01-31T19:29:11.253Z,1.30
2018-01-31T19:31:38.537Z,1.10
2018-01-31T19:35:10.297Z,1.03
2018-01-31T19:37:37.597Z,1.10
2018-01-31T19:40:04.904Z,1.30
2018-01-31T19:42:32.253Z,1.30
2018-01-31T19:58:31.045Z,1.17
2018-01-31T20:00:58.366Z,1.13
2018-01-31T20:03:25.766Z,1.20
2018-01-31T20:05:53.091Z,1.10
2018-01-31T20:08:21.290Z,1.80
2018-01-31T20:10:49.475Z,1.47
2018-01-31T20:27:09.094Z,3.87
2018-01-31T20:29:37.427Z,3.10
2018-01-31T20:32:05.605Z,3.67
2018-01-31T20:34:33.810Z,3.03
2018-01-31T20:37:02.034Z,3.13
2018-01-31T20:42:33.296Z,2.53
2018-01-31T20:45:01.530Z,1.80
2018-01-31T20:47:29.604Z,1.60
2018-01-31T20:49:58.502Z,1.43
2018-01-31T20:52:26.833Z,1.90
2018-01-31T20:54:55.671Z,1.30
2018-01-31T20:57:23.784Z,1.07
2018-01-31T20:59:51.860Z,1.17
2018-01-31T21:02:19.976Z,1.43
2018-01-31T21:04:48.512Z,1.27
2018-01-31T21:07:16.642Z,1.20
2018-01-31T21:09:45.497Z,1.20
2018-01-31T21:12:13.580Z,1.17
2018-01-31T21:14:41.741Z,0.90
2018-01-31T21:17:09.908Z,1.47
2018-01-31T21:19:37.976Z,1.10
2018-01-31T21:22:06.061Z,1.10
2018-01-31T21:24:36.044Z,1.40
2018-01-31T21:27:04.292Z,1.03
2018-01-31T21:29:32.488Z,1.20
2018-01-31T21:32:03.015Z,1.07
2018-01-31T21:34:31.228Z,0.80
2018-01-31T21:36:59.456Z,1.33
2018-01-31T21:39:28.332Z,0.83
2018-01-31T21:41:56.451Z,0.70
2018-01-31T21:44:24.630Z,1.07
2018-01-31T21:46:52.739Z,1.07
2018-01-31T21:49:20.855Z,0.90
2018-01-31T21:51:49.055Z,1.00
2018-01-31T21:54:17.180Z,1.30
2018-01-31T21:56:46.149Z,0.70
2018-01-31T21:59:14.310Z,0.90
2018-01-31T22:01:42.518Z,0.87
2018-01-31T22:04:10.648Z,1.03
2018-01-31T22:06:38.765Z,0.60
2018-01-31T22:09:06.886Z,0.90
2018-01-31T22:11:35.806Z,0.90
2018-01-31T22:14:04.668Z,0.93
2018-01-31T22:16:32.832Z,0.70
2018-01-31T22:19:00.963Z,0.83
2018-01-31T22:21:29.071Z,0.80
2018-01-31T22:23:57.192Z,0.70
2018-01-31T22:26:25.368Z,0.80
2018-01-31T22:28:53.511Z,0.73
2018-01-31T22:31:22.404Z,0.80
2018-01-31T22:33:50.569Z,0.70
2018-01-31T22:36:18.744Z,0.90
2018-01-31T22:38:46.939Z,0.50
2018-01-31T22:41:15.089Z,0.60
2018-01-31T22:43:43.225Z,0.67
2018-01-31T22:46:11.332Z,0.70
2018-01-31T22:48:40.319Z,0.63
2018-01-31T22:51:08.471Z,0.90
2018-01-31T22:53:36.570Z,0.70
2018-01-31T22:56:04.696Z,0.60
2018-01-31T22:58:32.913Z,0.70
2018-01-31T23:01:01.013Z,0.80
2018-01-31T23:03:29.117Z,0.80
2018-01-31T23:05:57.210Z,0.90
2018-01-31T23:08:25.300Z,0.90
2018-01-31T23:10:53.435Z,0.87
2018-01-31T23:13:22.308Z,0.60
2018-01-31T23:15:50.436Z,0.60
2018-01-31T23:18:19.467Z,0.70
2018-01-31T23:20:48.480Z,0.70
2018-01-31T23:23:16.604Z,0.60
2018-01-31T23:25:44.720Z,0.60
2018-01-31T23:28:12.839Z,0.70
2018-01-31T23:30:41.701Z,0.60
2018-01-31T23:33:09.812Z,0.73
2018-01-31T23:35:37.933Z,0.80
2018-01-31T23:38:06.037Z,0.60
2018-01-31T23:40:34.217Z,0.50
2018-01-31T23:43:02.578Z,0.57
2018-01-31T23:45:30.735Z,0.80
2018-01-31T23:47:58.819Z,0.70
2018-01-31T23:50:26.906Z,0.63
2018-01-31T23:52:55.041Z,0.70
2018-01-31T23:55:23.217Z,0.60
2018-01-31T23:57:51.360Z,0.60
